createdAt,value
2022-08-14T00:03:21.021Z,24.80
2022-08-14T00:08:43.596Z,24.70
2022-08-14T00:13:52.864Z,24.70
2022-08-14T00:19:06.253Z,24.60
2022-08-14T00:24:28.554Z,24.60
2022-08-14T00:29:40.472Z,24.50
2022-08-14T00:34:47.261Z,24.50
2022-08-14T00:39:52.150Z,24.40
2022-08-14T00:44:57.498Z,24.40
2022-08-14T00:50:02.452Z,24.40
2022-08-14T00:55:10.132Z,24.30
2022-08-14T01:00:37.456Z,24.30
2022-08-14T01:05:51.771Z,24.20
2022-08-14T01:10:58.702Z,24.20
2022-08-14T01:16:06.768Z,24.10
2022-08-14T01:21:12.778Z,24.10
2022-08-14T01:26:23.544Z,24.00
2022-08-14T01:31:42.511Z,24.00
2022-08-14T01:36:46.175Z,23.90
2022-08-14T01:41:58.251Z,23.90
2022-08-14T01:47:11.612Z,23.90
2022-08-14T01:52:34.515Z,23.80
2022-08-14T01:58:00.995Z,23.80
2022-08-14T02:03:08.517Z,23.80
2022-08-14T02:08:13.179Z,23.70
2022-08-14T02:13:21.168Z,23.60
2022-08-14T02:18:25.856Z,23.60
2022-08-14T02:23:32.583Z,23.60
2022-08-14T02:28:57.649Z,23.50
2022-08-14T02:34:14.756Z,23.50
2022-08-14T02:39:25.887Z,23.40
2022-08-14T02:44:39.462Z,23.40
2022-08-14T02:49:46.505Z,23.40
2022-08-14T02:54:58.487Z,23.30
2022-08-14T03:00:09.985Z,23.30
2022-08-14T03:05:14.303Z,23.30
2022-08-14T03:10:27.904Z,23.20
2022-08-14T03:15:39.936Z,23.20
2022-08-14T03:20:44.497Z,23.10
2022-08-14T03:25:50.288Z,23.10
2022-08-14T03:30:56.158Z,23.00
2022-08-14T03:37:28.807Z,23.00
2022-08-14T03:41:33.276Z,23.00
2022-08-14T03:46:54.850Z,23.00
2022-08-14T03:52:18.025Z,22.90
2022-08-14T03:57:37.115Z,22.90
2022-08-14T04:02:47.159Z,22.90
2022-08-14T04:08:08.739Z,22.80
2022-08-14T04:13:18.215Z,22.80
2022-08-14T04:18:23.388Z,22.80
2022-08-14T04:23:29.840Z,22.70
2022-08-14T04:29:09.078Z,22.70
2022-08-14T04:34:05.391Z,22.70
2022-08-14T04:39:29.052Z,22.60
2022-08-14T04:44:37.320Z,22.60
2022-08-14T04:49:46.690Z,22.50
2022-08-14T04:55:01.349Z,22.50
2022-08-14T05:00:08.011Z,22.50
2022-08-14T05:05:24.961Z,22.40
2022-08-14T05:10:32.341Z,22.40
2022-08-14T05:15:39.411Z,22.30
2022-08-14T05:21:58.223Z,22.30
2022-08-14T05:26:17.265Z,22.30
2022-08-14T05:31:21.358Z,22.30
2022-08-14T05:36:26.996Z,22.30
2022-08-14T05:41:53.345Z,22.30
2022-08-14T05:46:56.784Z,22.30
2022-08-14T05:52:02.476Z,22.30
2022-08-14T05:57:06.639Z,22.30
2022-08-14T06:02:11.397Z,22.30
2022-08-14T06:07:16.785Z,22.30
2022-08-14T06:12:55.141Z,22.30
2022-08-14T06:17:47.239Z,22.30
2022-08-14T06:23:03.986Z,22.30
2022-08-14T06:28:26.956Z,22.30
2022-08-14T06:35:03.240Z,22.30
2022-08-14T06:38:56.634Z,22.30
2022-08-14T06:44:02.606Z,22.30
2022-08-14T06:49:07.447Z,22.40
2022-08-14T06:54:14.987Z,22.40
2022-08-14T06:59:20.184Z,22.50
2022-08-14T07:04:41.085Z,22.50
2022-08-14T07:09:50.989Z,22.60
2022-08-14T07:14:58.626Z,22.60
2022-08-14T07:20:07.184Z,22.70
2022-08-14T07:25:12.994Z,22.70
2022-08-14T07:30:34.078Z,22.80
2022-08-14T07:35:58.031Z,22.80
2022-08-14T07:41:11.974Z,22.90
2022-08-14T07:46:21.145Z,23.00
2022-08-14T07:51:34.010Z,23.10
2022-08-14T07:56:43.981Z,23.20
2022-08-14T08:01:53.403Z,23.30
2022-08-14T08:07:01.827Z,23.30
2022-08-14T08:12:14.290Z,23.40
2022-08-14T08:17:20.389Z,23.60
2022-08-14T08:22:27.349Z,23.70
2022-08-14T08:27:37.451Z,23.80
2022-08-14T08:32:49.017Z,23.90
2022-08-14T08:39:13.968Z,24.00
2022-08-14T08:43:32.461Z,24.10
2022-08-14T08:48:53.923Z,24.30
2022-08-14T08:53:58.773Z,24.40
2022-08-14T08:59:07.737Z,24.60
2022-08-14T09:04:14.710Z,24.70
2022-08-14T09:09:26.125Z,24.90
2022-08-14T09:14:40.050Z,25.00
2022-08-14T09:19:43.903Z,25.20
2022-08-14T09:24:49.596Z,25.30
2022-08-14T09:29:55.064Z,25.50
2022-08-14T09:35:10.671Z,25.70
2022-08-14T09:40:24.069Z,25.80
2022-08-14T09:45:39.917Z,26.00
2022-08-14T09:50:48.123Z,26.10
2022-08-14T09:56:00.479Z,26.30
2022-08-14T10:01:11.164Z,26.50
2022-08-14T10:06:19.441Z,26.60
2022-08-14T10:11:25.620Z,26.70
2022-08-14T10:16:45.445Z,26.80
2022-08-14T10:23:21.874Z,26.90
2022-08-14T10:27:27.173Z,27.00
2022-08-14T10:32:52.235Z,27.10
2022-08-14T10:37:56.398Z,27.20
2022-08-14T10:43:00.249Z,27.30
2022-08-14T10:48:25.051Z,27.30
2022-08-14T10:53:41.456Z,27.40
2022-08-14T10:58:45.890Z,27.50
2022-08-14T11:03:56.462Z,27.60
2022-08-14T11:09:12.236Z,27.70
2022-08-14T11:14:22.993Z,27.90
2022-08-14T11:19:33.553Z,28.00
2022-08-14T11:24:50.713Z,28.10
2022-08-14T11:30:49.894Z,28.20
2022-08-14T11:35:44.073Z,28.30
2022-08-14T11:40:52.600Z,28.30
2022-08-14T11:45:56.542Z,28.30
2022-08-14T11:51:01.676Z,28.40
2022-08-14T11:56:07.070Z,28.40
2022-08-14T12:01:16.322Z,28.40
2022-08-14T12:06:29.592Z,28.40
2022-08-14T12:11:47.275Z,28.30
2022-08-14T12:17:04.196Z,28.40
2022-08-14T12:22:10.017Z,28.40
2022-08-14T12:27:25.124Z,28.40
2022-08-14T12:32:40.444Z,28.50
2022-08-14T12:37:51.768Z,28.60
2022-08-14T12:43:01.446Z,28.70
2022-08-14T12:48:20.637Z,28.80
2022-08-14T12:53:39.933Z,28.90
2022-08-14T12:58:52.577Z,29.00
2022-08-14T13:04:10.216Z,29.00
2022-08-14T13:09:16.604Z,29.00
2022-08-14T13:14:29.845Z,29.00
2022-08-14T13:19:34.593Z,29.10
2022-08-14T13:24:40.782Z,29.00
2022-08-14T13:29:47.091Z,29.00
2022-08-14T13:34:52.772Z,29.00
2022-08-14T13:39:58.199Z,29.00
2022-08-14T13:45:03.688Z,29.10
2022-08-14T13:50:12.808Z,29.10
2022-08-14T13:55:20.723Z,29.10
2022-08-14T14:00:32.429Z,29.10
2022-08-14T14:05:53.022Z,29.10
2022-08-14T14:10:59.662Z,29.10
2022-08-14T14:16:06.210Z,29.20
2022-08-14T14:21:11.049Z,29.20
2022-08-14T14:26:23.251Z,29.20
2022-08-14T14:31:31.175Z,29.20
2022-08-14T14:36:36.606Z,29.30
2022-08-14T14:41:43.973Z,29.30
2022-08-14T14:46:50.686Z,29.30
2022-08-14T14:51:55.982Z,29.30
2022-08-14T14:57:02.377Z,29.30
2022-08-14T15:02:09.360Z,29.30
2022-08-14T15:07:16.237Z,29.30
2022-08-14T15:12:55.345Z,29.20
2022-08-14T15:17:45.370Z,29.20
2022-08-14T15:22:51.760Z,29.10
2022-08-14T15:27:57.110Z,29.10
2022-08-14T15:33:00.999Z,29.10
2022-08-14T15:38:08.071Z,29.10
2022-08-14T15:43:13.343Z,29.00
2022-08-14T15:48:22.293Z,29.00
2022-08-14T15:53:31.500Z,29.00
2022-08-14T15:58:37.815Z,29.00
2022-08-14T16:03:42.528Z,29.00
2022-08-14T16:08:58.761Z,29.00
2022-08-14T16:14:06.743Z,29.00
2022-08-14T16:19:11.410Z,28.90
2022-08-14T16:24:27.597Z,28.90
2022-08-14T16:29:35.725Z,28.90
2022-08-14T16:34:45.685Z,28.80
2022-08-14T16:39:53.823Z,28.80
2022-08-14T16:45:01.054Z,28.80
2022-08-14T16:50:09.417Z,28.70
2022-08-14T16:55:17.772Z,28.70
2022-08-14T17:00:43.834Z,28.70
2022-08-14T17:05:51.068Z,28.60
2022-08-14T17:11:09.989Z,28.70
2022-08-14T17:16:25.079Z,28.60
2022-08-14T17:21:32.444Z,28.60
2022-08-14T17:26:39.706Z,28.60
2022-08-14T17:31:57.739Z,28.60
2022-08-14T17:37:02.628Z,28.50
2022-08-14T17:42:13.214Z,28.50
2022-08-14T17:47:20.549Z,28.50
2022-08-14T17:52:34.838Z,28.40
2022-08-14T17:57:44.567Z,28.40
2022-08-14T18:02:52.172Z,28.40
2022-08-14T18:08:33.008Z,28.30
2022-08-14T18:13:20.442Z,28.30
2022-08-14T18:18:45.676Z,28.20
2022-08-14T18:23:52.108Z,28.20
2022-08-14T18:28:59.644Z,28.10
2022-08-14T18:34:12.199Z,28.10
2022-08-14T18:40:02.018Z,28.00
2022-08-14T18:45:12.632Z,27.90
2022-08-14T18:50:27.480Z,27.90
2022-08-14T18:55:53.928Z,27.80
2022-08-14T19:01:00.635Z,27.80
2022-08-14T19:06:07.004Z,27.70
2022-08-14T19:11:45.141Z,27.60
2022-08-14T19:16:54.385Z,27.60
2022-08-14T19:21:59.553Z,27.50
2022-08-14T19:27:19.711Z,27.50
2022-08-14T19:32:39.750Z,27.40
2022-08-14T19:37:48.440Z,27.40
2022-08-14T19:42:58.302Z,27.30
2022-08-14T19:48:03.864Z,27.30
2022-08-14T19:53:16.431Z,27.30
2022-08-14T19:58:30.098Z,27.20
2022-08-14T20:04:00.289Z,27.20
2022-08-14T20:11:08.193Z,27.20
2022-08-14T20:14:38.010Z,27.10
2022-08-14T20:19:42.952Z,27.10
2022-08-14T20:24:50.022Z,27.00
2022-08-14T20:30:29.620Z,27.00
2022-08-14T20:35:35.568Z,26.90
2022-08-14T20:40:50.348Z,26.90
2022-08-14T20:45:54.929Z,26.90
2022-08-14T20:50:59.534Z,26.80
2022-08-14T20:56:29.076Z,26.80
2022-08-14T21:01:38.543Z,26.70
2022-08-14T21:07:22.993Z,26.70
2022-08-14T21:12:06.550Z,26.60
2022-08-14T21:17:32.280Z,26.60
2022-08-14T21:22:44.988Z,26.50
2022-08-14T21:27:56.601Z,26.50
2022-08-14T21:33:02.741Z,26.50
2022-08-14T21:38:18.336Z,26.50
2022-08-14T21:43:24.638Z,26.50
2022-08-14T21:48:31.960Z,26.40
2022-08-14T21:53:36.682Z,26.40
2022-08-14T21:59:04.487Z,26.40
2022-08-14T22:04:34.506Z,26.40
2022-08-14T22:09:36.680Z,26.40
2022-08-14T22:14:43.208Z,26.40
2022-08-14T22:19:55.195Z,26.30
2022-08-14T22:25:01.275Z,26.30
2022-08-14T22:30:12.190Z,26.30
2022-08-14T22:35:18.057Z,26.30
2022-08-14T22:40:59.586Z,26.30
2022-08-14T22:45:55.441Z,26.30
2022-08-14T22:51:02.193Z,26.20
2022-08-14T22:56:07.256Z,26.20
2022-08-14T23:01:57.342Z,26.20
2022-08-14T23:07:02.457Z,26.20
2022-08-14T23:12:27.608Z,26.20
2022-08-14T23:17:39.081Z,26.20
2022-08-14T23:22:46.427Z,26.20
2022-08-14T23:28:02.557Z,26.10
2022-08-14T23:33:07.619Z,26.10
2022-08-14T23:38:29.793Z,26.10
2022-08-14T23:43:34.766Z,26.10
2022-08-14T23:48:40.451Z,26.10
2022-08-14T23:53:53.118Z,26.00
2022-08-14T23:58:57.488Z,26.00
